sensor_id;sensor_type;location;lat;lon;timestamp;P1;durP1;ratioP1;P2;durP2;ratioP2
20458;SDS011;10388;52.314;7.938;2023-06-22T00:01:11;1660.27;;;999.90;;
20458;SDS011;10388;52.314;7.938;2023-06-22T00:03:42;1694.57;;;999.90;;
20458;SDS011;10388;52.314;7.938;2023-06-22T00:06:12;1755.60;;;999.90;;
20458;SDS011;10388;52.314;7.938;2023-06-22T00:08:43;1771.40;;;999.90;;
20458;SDS011;10388;52.314;7.938;2023-06-22T00:11:17;1700.43;;;999.90;;
20458;SDS011;10388;52.314;7.938;2023-06-22T00:13:47;1684.77;;;999.90;;
20458;SDS011;10388;52.314;7.938;2023-06-22T00:16:19;1754.50;;;999.90;;
20458;SDS011;10388;52.314;7.938;2023-06-22T00:18:50;1754.80;;;999.90;;
20458;SDS011;10388;52.314;7.938;2023-06-22T00:21:21;1726.50;;;999.90;;
20458;SDS011;10388;52.314;7.938;2023-06-22T00:23:52;1690.60;;;999.90;;
20458;SDS011;10388;52.314;7.938;2023-06-22T00:26:26;1749.33;;;999.90;;
20458;SDS011;10388;52.314;7.938;2023-06-22T00:28:56;1758.27;;;999.90;;
20458;SDS011;10388;52.314;7.938;2023-06-22T03:33:04;1999.90;;;999.90;;
20458;SDS011;10388;52.314;7.938;2023-06-22T03:35:34;1999.90;;;999.90;;
20458;SDS011;10388;52.314;7.938;2023-06-22T03:38:05;1999.90;;;999.90;;
20458;SDS011;10388;52.314;7.938;2023-06-22T03:40:35;1999.90;;;999.90;;
20458;SDS011;10388;52.314;7.938;2023-06-22T03:43:06;1999.90;;;999.90;;
20458;SDS011;10388;52.314;7.938;2023-06-22T03:45:36;1999.90;;;999.90;;
20458;SDS011;10388;52.314;7.938;2023-06-22T03:48:07;1999.90;;;999.90;;
20458;SDS011;10388;52.314;7.938;2023-06-22T03:50:38;1999.90;;;999.90;;
20458;SDS011;10388;52.314;7.938;2023-06-22T03:53:08;1999.90;;;999.90;;
20458;SDS011;10388;52.314;7.938;2023-06-22T03:55:42;1999.90;;;999.90;;
20458;SDS011;10388;52.314;7.938;2023-06-22T03:58:19;1999.90;;;999.90;;
20458;SDS011;10388;52.314;7.938;2023-06-22T04:00:51;1999.90;;;999.90;;
20458;SDS011;10388;52.314;7.938;2023-06-22T04:03:22;1999.90;;;999.90;;
20458;SDS011;10388;52.314;7.938;2023-06-22T04:05:53;1999.90;;;999.90;;
20458;SDS011;10388;52.314;7.938;2023-06-22T04:08:23;1999.90;;;999.90;;
20458;SDS011;10388;52.314;7.938;2023-06-22T04:10:54;1999.90;;;999.90;;
20458;SDS011;10388;52.314;7.938;2023-06-22T04:13:24;1999.90;;;999.90;;
20458;SDS011;10388;52.314;7.938;2023-06-22T04:15:55;1999.90;;;999.90;;
20458;SDS011;10388;52.314;7.938;2023-06-22T04:18:25;1999.90;;;999.90;;
20458;SDS011;10388;52.314;7.938;2023-06-22T04:20:56;1999.90;;;999.90;;
20458;SDS011;10388;52.314;7.938;2023-06-22T04:23:26;1999.90;;;999.90;;
20458;SDS011;10388;52.314;7.938;2023-06-22T04:25:57;1999.90;;;999.90;;
20458;SDS011;10388;52.314;7.938;2023-06-22T04:28:29;1999.90;;;999.90;;
20458;SDS011;10388;52.314;7.938;2023-06-22T04:31:03;1999.90;;;999.90;;
20458;SDS011;10388;52.314;7.938;2023-06-22T04:33:34;1999.90;;;999.90;;
20458;SDS011;10388;52.314;7.938;2023-06-22T04:36:05;1999.90;;;999.90;;
20458;SDS011;10388;52.314;7.938;2023-06-22T04:38:35;1999.90;;;999.90;;
20458;SDS011;10388;52.314;7.938;2023-06-22T04:41:06;1999.90;;;999.90;;
20458;SDS011;10388;52.314;7.938;2023-06-22T04:43:36;1999.90;;;999.90;;
20458;SDS011;10388;52.314;7.938;2023-06-22T04:46:07;1999.90;;;999.90;;
20458;SDS011;10388;52.314;7.938;2023-06-22T04:48:37;1999.90;;;999.90;;
20458;SDS011;10388;52.314;7.938;2023-06-22T04:51:08;1999.90;;;999.90;;
20458;SDS011;10388;52.314;7.938;2023-06-22T04:53:40;1992.23;;;999.90;;
20458;SDS011;10388;52.314;7.938;2023-06-22T04:56:11;1999.90;;;999.90;;
20458;SDS011;10388;52.314;7.938;2023-06-22T04:58:41;1896.87;;;999.90;;
20458;SDS011;10388;52.314;7.938;2023-06-22T05:01:12;1999.90;;;999.90;;
20458;SDS011;10388;52.314;7.938;2023-06-22T05:03:42;1999.90;;;999.90;;
20458;SDS011;10388;52.314;7.938;2023-06-22T05:06:13;1999.90;;;999.90;;
20458;SDS011;10388;52.314;7.938;2023-06-22T05:08:44;1995.37;;;999.90;;
20458;SDS011;10388;52.314;7.938;2023-06-22T05:11:15;1998.40;;;999.90;;
20458;SDS011;10388;52.314;7.938;2023-06-22T05:13:45;1999.90;;;999.90;;
20458;SDS011;10388;52.314;7.938;2023-06-22T05:16:16;1999.90;;;999.90;;
20458;SDS011;10388;52.314;7.938;2023-06-22T05:18:46;1999.90;;;999.90;;
20458;SDS011;10388;52.314;7.938;2023-06-22T05:21:17;1999.90;;;999.90;;
20458;SDS011;10388;52.314;7.938;2023-06-22T05:23:49;1999.90;;;999.90;;
20458;SDS011;10388;52.314;7.938;2023-06-22T05:26:20;1999.90;;;999.90;;
20458;SDS011;10388;52.314;7.938;2023-06-22T05:28:51;1999.90;;;999.90;;
20458;SDS011;10388;52.314;7.938;2023-06-22T05:31:21;1999.90;;;999.90;;
20458;SDS011;10388;52.314;7.938;2023-06-22T05:33:53;1999.90;;;999.90;;
20458;SDS011;10388;52.314;7.938;2023-06-22T05:36:24;1999.90;;;999.90;;
20458;SDS011;10388;52.314;7.938;2023-06-22T05:38:56;1999.90;;;999.90;;
20458;SDS011;10388;52.314;7.938;2023-06-22T05:41:27;1999.90;;;999.90;;
20458;SDS011;10388;52.314;7.938;2023-06-22T05:43:58;1999.90;;;999.90;;
20458;SDS011;10388;52.314;7.938;2023-06-22T05:46:28;1999.90;;;999.90;;
20458;SDS011;10388;52.314;7.938;2023-06-22T05:48:59;1999.90;;;999.90;;
20458;SDS011;10388;52.314;7.938;2023-06-22T05:51:29;1999.90;;;999.90;;
20458;SDS011;10388;52.314;7.938;2023-06-22T05:54:00;1999.90;;;999.90;;
20458;SDS011;10388;52.314;7.938;2023-06-22T05:56:30;1999.90;;;999.90;;
20458;SDS011;10388;52.314;7.938;2023-06-22T05:59:01;1999.90;;;999.90;;
20458;SDS011;10388;52.314;7.938;2023-06-22T06:01:31;1999.90;;;999.90;;
20458;SDS011;10388;52.314;7.938;2023-06-22T06:04:04;1999.90;;;999.90;;
20458;SDS011;10388;52.314;7.938;2023-06-22T06:06:35;1999.90;;;999.90;;
20458;SDS011;10388;52.314;7.938;2023-06-22T06:09:07;1999.90;;;999.90;;
20458;SDS011;10388;52.314;7.938;2023-06-22T06:11:37;1999.90;;;999.90;;
20458;SDS011;10388;52.314;7.938;2023-06-22T06:14:08;1999.90;;;999.90;;
20458;SDS011;10388;52.314;7.938;2023-06-22T06:16:38;1999.90;;;999.90;;
20458;SDS011;10388;52.314;7.938;2023-06-22T06:19:09;1999.90;;;999.90;;
20458;SDS011;10388;52.314;7.938;2023-06-22T06:21:39;1999.90;;;999.90;;
20458;SDS011;10388;52.314;7.938;2023-06-22T06:24:10;1999.90;;;999.90;;
20458;SDS011;10388;52.314;7.938;2023-06-22T06:26:41;1999.90;;;999.90;;
20458;SDS011;10388;52.314;7.938;2023-06-22T06:29:11;1999.90;;;999.90;;
20458;SDS011;10388;52.314;7.938;2023-06-22T06:31:42;1999.90;;;999.90;;
20458;SDS011;10388;52.314;7.938;2023-06-22T06:34:12;1999.90;;;999.90;;
20458;SDS011;10388;52.314;7.938;2023-06-22T06:36:43;1999.90;;;999.90;;
20458;SDS011;10388;52.314;7.938;2023-06-22T06:39:14;1999.90;;;999.90;;
20458;SDS011;10388;52.314;7.938;2023-06-22T06:41:46;1999.90;;;999.90;;
20458;SDS011;10388;52.314;7.938;2023-06-22T06:44:16;1999.90;;;999.90;;
20458;SDS011;10388;52.314;7.938;2023-06-22T06:46:47;1999.90;;;999.90;;
20458;SDS011;10388;52.314;7.938;2023-06-22T06:49:17;1999.90;;;999.90;;
20458;SDS011;10388;52.314;7.938;2023-06-22T06:51:48;1999.90;;;999.90;;
20458;SDS011;10388;52.314;7.938;2023-06-22T06:54:18;1999.90;;;999.90;;
20458;SDS011;10388;52.314;7.938;2023-06-22T06:56:50;1999.90;;;999.90;;
20458;SDS011;10388;52.314;7.938;2023-06-22T06:59:21;1999.90;;;999.90;;
20458;SDS011;10388;52.314;7.938;2023-06-22T07:01:51;1999.90;;;999.90;;
20458;SDS011;10388;52.314;7.938;2023-06-22T07:04:22;1999.90;;;999.90;;
20458;SDS011;10388;52.314;7.938;2023-06-22T07:06:52;1999.90;;;999.90;;
20458;SDS011;10388;52.314;7.938;2023-06-22T07:09:23;1999.90;;;999.90;;
20458;SDS011;10388;52.314;7.938;2023-06-22T07:11:53;1999.90;;;999.90;;
20458;SDS011;10388;52.314;7.938;2023-06-22T07:14:24;1999.90;;;999.90;;
20458;SDS011;10388;52.314;7.938;2023-06-22T07:16:55;1999.90;;;999.90;;
20458;SDS011;10388;52.314;7.938;2023-06-22T07:19:25;1999.90;;;999.90;;
20458;SDS011;10388;52.314;7.938;2023-06-22T07:21:56;1999.90;;;999.90;;
20458;SDS011;10388;52.314;7.938;2023-06-22T07:24:27;1999.90;;;999.90;;
20458;SDS011;10388;52.314;7.938;2023-06-22T07:26:58;1999.90;;;999.90;;
20458;SDS011;10388;52.314;7.938;2023-06-22T07:29:29;1999.90;;;999.90;;
20458;SDS011;10388;52.314;7.938;2023-06-22T07:31:59;1999.90;;;999.90;;
20458;SDS011;10388;52.314;7.938;2023-06-22T07:34:30;1999.90;;;999.90;;
20458;SDS011;10388;52.314;7.938;2023-06-22T07:37:01;1990.40;;;999.90;;
20458;SDS011;10388;52.314;7.938;2023-06-22T07:39:32;1999.90;;;999.90;;
20458;SDS011;10388;52.314;7.938;2023-06-22T07:42:02;1885.80;;;999.90;;
20458;SDS011;10388;52.314;7.938;2023-06-22T07:44:33;1999.90;;;999.90;;
20458;SDS011;10388;52.314;7.938;2023-06-22T07:47:04;1999.90;;;999.90;;
20458;SDS011;10388;52.314;7.938;2023-06-22T07:49:34;1999.90;;;999.90;;
20458;SDS011;10388;52.314;7.938;2023-06-22T07:52:05;1999.70;;;999.90;;
20458;SDS011;10388;52.314;7.938;2023-06-22T07:54:36;1992.73;;;999.90;;
20458;SDS011;10388;52.314;7.938;2023-06-22T07:57:07;1999.90;;;999.90;;
20458;SDS011;10388;52.314;7.938;2023-06-22T07:59:37;1960.23;;;999.90;;
20458;SDS011;10388;52.314;7.938;2023-06-22T08:02:08;1999.90;;;999.90;;
20458;SDS011;10388;52.314;7.938;2023-06-22T08:04:41;1999.90;;;999.90;;
20458;SDS011;10388;52.314;7.938;2023-06-22T08:07:11;1992.07;;;999.90;;
20458;SDS011;10388;52.314;7.938;2023-06-22T08:09:45;1998.77;;;999.90;;
20458;SDS011;10388;52.314;7.938;2023-06-22T08:12:17;1956.87;;;999.90;;
20458;SDS011;10388;52.314;7.938;2023-06-22T08:14:47;1942.47;;;999.90;;
20458;SDS011;10388;52.314;7.938;2023-06-22T08:17:18;1993.07;;;999.90;;
20458;SDS011;10388;52.314;7.938;2023-06-22T08:19:48;1951.90;;;999.90;;
20458;SDS011;10388;52.314;7.938;2023-06-22T08:22:19;1999.90;;;999.90;;
20458;SDS011;10388;52.314;7.938;2023-06-22T08:24:50;1810.00;;;999.90;;
20458;SDS011;10388;52.314;7.938;2023-06-22T08:27:20;1752.00;;;999.90;;
20458;SDS011;10388;52.314;7.938;2023-06-22T08:29:53;1816.40;;;999.90;;
20458;SDS011;10388;52.314;7.938;2023-06-22T08:32:28;1623.47;;;999.90;;
20458;SDS011;10388;52.314;7.938;2023-06-22T08:34:59;1930.17;;;999.90;;
20458;SDS011;10388;52.314;7.938;2023-06-22T08:37:29;1839.97;;;999.90;;
20458;SDS011;10388;52.314;7.938;2023-06-22T08:40:06;1954.80;;;999.90;;
20458;SDS011;10388;52.314;7.938;2023-06-22T08:42:42;1990.07;;;999.90;;
20458;SDS011;10388;52.314;7.938;2023-06-22T08:45:12;1794.37;;;999.90;;
20458;SDS011;10388;52.314;7.938;2023-06-22T08:47:44;1995.33;;;999.90;;
20458;SDS011;10388;52.314;7.938;2023-06-22T08:50:14;1802.20;;;999.90;;
20458;SDS011;10388;52.314;7.938;2023-06-22T08:52:45;1802.17;;;999.90;;
20458;SDS011;10388;52.314;7.938;2023-06-22T08:55:16;1849.43;;;999.90;;
20458;SDS011;10388;52.314;7.938;2023-06-22T08:57:47;1829.80;;;999.90;;
20458;SDS011;10388;52.314;7.938;2023-06-22T09:00:18;1806.20;;;999.90;;
20458;SDS011;10388;52.314;7.938;2023-06-22T09:02:50;1895.03;;;999.90;;
20458;SDS011;10388;52.314;7.938;2023-06-22T09:05:20;1827.77;;;999.90;;
20458;SDS011;10388;52.314;7.938;2023-06-22T09:07:52;1911.37;;;999.90;;
20458;SDS011;10388;52.314;7.938;2023-06-22T09:10:25;1833.33;;;999.90;;
20458;SDS011;10388;52.314;7.938;2023-06-22T09:12:56;1767.30;;;999.90;;
20458;SDS011;10388;52.314;7.938;2023-06-22T09:15:27;1851.73;;;999.90;;
20458;SDS011;10388;52.314;7.938;2023-06-22T09:17:58;1777.33;;;999.90;;
20458;SDS011;10388;52.314;7.938;2023-06-22T09:20:28;1868.77;;;999.90;;
20458;SDS011;10388;52.314;7.938;2023-06-22T09:22:59;1902.97;;;999.90;;
20458;SDS011;10388;52.314;7.938;2023-06-22T09:25:29;1838.40;;;999.90;;
20458;SDS011;10388;52.314;7.938;2023-06-22T09:28:00;1986.57;;;999.90;;
20458;SDS011;10388;52.314;7.938;2023-06-22T09:30:31;1900.03;;;999.90;;
20458;SDS011;10388;52.314;7.938;2023-06-22T09:33:01;1959.47;;;999.90;;
20458;SDS011;10388;52.314;7.938;2023-06-22T09:35:32;1959.07;;;999.90;;
20458;SDS011;10388;52.314;7.938;2023-06-22T09:38:02;1832.30;;;999.90;;
20458;SDS011;10388;52.314;7.938;2023-06-22T09:40:33;1820.53;;;999.90;;
20458;SDS011;10388;52.314;7.938;2023-06-22T09:43:09;1924.27;;;999.90;;
20458;SDS011;10388;52.314;7.938;2023-06-22T09:45:40;1873.67;;;999.90;;
20458;SDS011;10388;52.314;7.938;2023-06-22T09:48:11;1872.43;;;999.90;;
20458;SDS011;10388;52.314;7.938;2023-06-22T09:50:41;1999.90;;;999.90;;
20458;SDS011;10388;52.314;7.938;2023-06-22T09:53:12;1999.90;;;999.90;;
20458;SDS011;10388;52.314;7.938;2023-06-22T09:55:43;1999.90;;;999.90;;
20458;SDS011;10388;52.314;7.938;2023-06-22T09:58:13;1999.90;;;999.90;;
20458;SDS011;10388;52.314;7.938;2023-06-22T10:00:44;1999.90;;;999.90;;
20458;SDS011;10388;52.314;7.938;2023-06-22T10:03:14;1977.20;;;999.90;;
20458;SDS011;10388;52.314;7.938;2023-06-22T10:05:45;1999.90;;;999.90;;
20458;SDS011;10388;52.314;7.938;2023-06-22T10:08:15;1999.90;;;999.90;;
20458;SDS011;10388;52.314;7.938;2023-06-22T10:10:46;1999.90;;;999.90;;
20458;SDS011;10388;52.314;7.938;2023-06-22T10:13:16;1999.90;;;999.90;;
20458;SDS011;10388;52.314;7.938;2023-06-22T10:15:48;1999.90;;;999.90;;
20458;SDS011;10388;52.314;7.938;2023-06-22T10:18:21;1999.90;;;999.90;;
20458;SDS011;10388;52.314;7.938;2023-06-22T10:20:52;1999.90;;;999.90;;
20458;SDS011;10388;52.314;7.938;2023-06-22T10:23:22;1999.90;;;999.90;;
20458;SDS011;10388;52.314;7.938;2023-06-22T10:25:53;1999.90;;;999.90;;
20458;SDS011;10388;52.314;7.938;2023-06-22T10:28:24;1999.90;;;999.90;;
20458;SDS011;10388;52.314;7.938;2023-06-22T10:30:54;1999.90;;;999.90;;
20458;SDS011;10388;52.314;7.938;2023-06-22T10:33:25;1999.90;;;999.90;;
20458;SDS011;10388;52.314;7.938;2023-06-22T10:35:55;1999.90;;;999.90;;
20458;SDS011;10388;52.314;7.938;2023-06-22T10:38:26;1999.90;;;999.90;;
20458;SDS011;10388;52.314;7.938;2023-06-22T10:40:56;1999.90;;;999.90;;
20458;SDS011;10388;52.314;7.938;2023-06-22T10:43:27;1999.90;;;999.90;;
20458;SDS011;10388;52.314;7.938;2023-06-22T10:45:57;1999.90;;;999.90;;
20458;SDS011;10388;52.314;7.938;2023-06-22T10:48:28;1999.90;;;999.90;;
20458;SDS011;10388;52.314;7.938;2023-06-22T10:50:58;1999.90;;;999.90;;
20458;SDS011;10388;52.314;7.938;2023-06-22T10:53:29;1999.90;;;999.90;;
20458;SDS011;10388;52.314;7.938;2023-06-22T10:55:59;1999.90;;;999.90;;
20458;SDS011;10388;52.314;7.938;2023-06-22T10:58:30;1999.90;;;999.90;;
20458;SDS011;10388;52.314;7.938;2023-06-22T11:01:00;1999.90;;;999.90;;
20458;SDS011;10388;52.314;7.938;2023-06-22T11:03:32;1999.90;;;999.90;;
20458;SDS011;10388;52.314;7.938;2023-06-22T11:06:03;1999.90;;;999.90;;
20458;SDS011;10388;52.314;7.938;2023-06-22T11:08:33;1999.90;;;999.90;;
20458;SDS011;10388;52.314;7.938;2023-06-22T11:11:04;1990.17;;;999.90;;
20458;SDS011;10388;52.314;7.938;2023-06-22T11:13:34;1999.90;;;999.90;;
20458;SDS011;10388;52.314;7.938;2023-06-22T11:16:05;1999.90;;;999.90;;
20458;SDS011;10388;52.314;7.938;2023-06-22T11:18:35;1999.90;;;999.90;;
20458;SDS011;10388;52.314;7.938;2023-06-22T11:21:06;1999.90;;;999.90;;
20458;SDS011;10388;52.314;7.938;2023-06-22T11:23:36;1999.90;;;999.90;;
20458;SDS011;10388;52.314;7.938;2023-06-22T11:26:07;1999.90;;;999.90;;
20458;SDS011;10388;52.314;7.938;2023-06-22T11:28:37;1999.90;;;999.90;;
20458;SDS011;10388;52.314;7.938;2023-06-22T11:31:08;1999.90;;;999.90;;
20458;SDS011;10388;52.314;7.938;2023-06-22T11:33:39;1995.43;;;999.90;;
20458;SDS011;10388;52.314;7.938;2023-06-22T11:36:09;1991.90;;;999.90;;
20458;SDS011;10388;52.314;7.938;2023-06-22T11:38:41;1999.90;;;999.90;;
20458;SDS011;10388;52.314;7.938;2023-06-22T11:41:12;1999.90;;;999.90;;
20458;SDS011;10388;52.314;7.938;2023-06-22T11:43:44;1999.90;;;999.90;;
20458;SDS011;10388;52.314;7.938;2023-06-22T11:46:15;1999.90;;;999.90;;
20458;SDS011;10388;52.314;7.938;2023-06-22T11:48:45;1999.90;;;999.90;;
20458;SDS011;10388;52.314;7.938;2023-06-22T11:51:16;1999.90;;;999.90;;
20458;SDS011;10388;52.314;7.938;2023-06-22T11:53:47;1999.90;;;999.90;;
20458;SDS011;10388;52.314;7.938;2023-06-22T11:56:17;1999.90;;;999.90;;
20458;SDS011;10388;52.314;7.938;2023-06-22T11:58:48;1966.23;;;999.90;;
20458;SDS011;10388;52.314;7.938;2023-06-22T12:01:18;1999.90;;;999.90;;
20458;SDS011;10388;52.314;7.938;2023-06-22T12:03:49;1999.90;;;999.90;;
20458;SDS011;10388;52.314;7.938;2023-06-22T12:06:19;1999.90;;;999.90;;
20458;SDS011;10388;52.314;7.938;2023-06-22T12:08:50;1999.90;;;999.90;;
20458;SDS011;10388;52.314;7.938;2023-06-22T12:11:20;1999.90;;;999.90;;
20458;SDS011;10388;52.314;7.938;2023-06-22T12:13:51;1999.90;;;999.90;;
20458;SDS011;10388;52.314;7.938;2023-06-22T12:16:21;1999.90;;;999.90;;
20458;SDS011;10388;52.314;7.938;2023-06-22T12:18:52;1999.90;;;999.90;;
20458;SDS011;10388;52.314;7.938;2023-06-22T12:21:23;1999.90;;;999.90;;
20458;SDS011;10388;52.314;7.938;2023-06-22T12:23:54;1999.90;;;999.90;;
20458;SDS011;10388;52.314;7.938;2023-06-22T12:26:24;1999.90;;;999.90;;
20458;SDS011;10388;52.314;7.938;2023-06-22T12:28:55;1999.90;;;999.90;;
20458;SDS011;10388;52.314;7.938;2023-06-22T12:31:25;1999.90;;;999.90;;
20458;SDS011;10388;52.314;7.938;2023-06-22T12:33:56;1999.90;;;999.90;;
20458;SDS011;10388;52.314;7.938;2023-06-22T12:36:26;1999.90;;;999.90;;
20458;SDS011;10388;52.314;7.938;2023-06-22T12:38:57;1999.90;;;999.90;;
20458;SDS011;10388;52.314;7.938;2023-06-22T12:41:28;1999.90;;;999.90;;
20458;SDS011;10388;52.314;7.938;2023-06-22T12:43:58;1999.90;;;999.90;;
20458;SDS011;10388;52.314;7.938;2023-06-22T12:46:29;1999.90;;;999.90;;
20458;SDS011;10388;52.314;7.938;2023-06-22T12:49:05;1999.90;;;999.90;;
20458;SDS011;10388;52.314;7.938;2023-06-22T12:51:39;1999.90;;;999.90;;
20458;SDS011;10388;52.314;7.938;2023-06-22T12:54:11;1999.90;;;999.90;;
20458;SDS011;10388;52.314;7.938;2023-06-22T12:56:41;1999.90;;;999.90;;
20458;SDS011;10388;52.314;7.938;2023-06-22T12:59:14;1999.90;;;999.90;;
20458;SDS011;10388;52.314;7.938;2023-06-22T13:01:47;1999.90;;;999.90;;
20458;SDS011;10388;52.314;7.938;2023-06-22T13:04:17;1999.90;;;999.90;;
20458;SDS011;10388;52.314;7.938;2023-06-22T13:06:48;1999.90;;;999.90;;
20458;SDS011;10388;52.314;7.938;2023-06-22T13:09:19;1999.90;;;999.90;;
20458;SDS011;10388;52.314;7.938;2023-06-22T13:11:49;1999.90;;;999.90;;
20458;SDS011;10388;52.314;7.938;2023-06-22T13:14:21;1999.90;;;999.90;;
20458;SDS011;10388;52.314;7.938;2023-06-22T13:16:51;1999.90;;;999.90;;
20458;SDS011;10388;52.314;7.938;2023-06-22T13:19:22;1999.90;;;999.90;;
20458;SDS011;10388;52.314;7.938;2023-06-22T13:21:52;1999.90;;;999.90;;
20458;SDS011;10388;52.314;7.938;2023-06-22T13:24:23;1999.90;;;999.90;;
20458;SDS011;10388;52.314;7.938;2023-06-22T13:26:53;1999.90;;;999.90;;
20458;SDS011;10388;52.314;7.938;2023-06-22T13:29:24;1999.90;;;999.90;;
20458;SDS011;10388;52.314;7.938;2023-06-22T13:31:55;1999.90;;;999.90;;
20458;SDS011;10388;52.314;7.938;2023-06-22T13:34:27;1999.90;;;999.90;;
20458;SDS011;10388;52.314;7.938;2023-06-22T13:36:57;1999.90;;;999.90;;
20458;SDS011;10388;52.314;7.938;2023-06-22T13:39:28;1999.90;;;999.90;;
20458;SDS011;10388;52.314;7.938;2023-06-22T13:41:58;1885.10;;;999.90;;
20458;SDS011;10388;52.314;7.938;2023-06-22T13:44:29;1814.00;;;999.90;;
20458;SDS011;10388;52.314;7.938;2023-06-22T13:46:59;1782.77;;;999.90;;
20458;SDS011;10388;52.314;7.938;2023-06-22T13:49:30;1816.23;;;995.47;;
20458;SDS011;10388;52.314;7.938;2023-06-22T13:52:01;1854.30;;;999.90;;
20458;SDS011;10388;52.314;7.938;2023-06-22T13:54:33;1736.13;;;999.90;;
20458;SDS011;10388;52.314;7.938;2023-06-22T13:57:03;1681.93;;;999.90;;
20458;SDS011;10388;52.314;7.938;2023-06-22T13:59:34;1597.27;;;999.90;;
20458;SDS011;10388;52.314;7.938;2023-06-22T14:02:05;1671.97;;;999.90;;
20458;SDS011;10388;52.314;7.938;2023-06-22T14:04:36;1615.20;;;999.90;;
20458;SDS011;10388;52.314;7.938;2023-06-22T14:07:06;1548.23;;;999.90;;
20458;SDS011;10388;52.314;7.938;2023-06-22T14:09:37;1536.90;;;999.90;;
20458;SDS011;10388;52.314;7.938;2023-06-22T14:12:08;1528.33;;;999.90;;
20458;SDS011;10388;52.314;7.938;2023-06-22T14:14:38;1445.40;;;999.90;;
20458;SDS011;10388;52.314;7.938;2023-06-22T14:17:09;1525.53;;;999.90;;
20458;SDS011;10388;52.314;7.938;2023-06-22T14:19:40;1419.13;;;999.90;;
20458;SDS011;10388;52.314;7.938;2023-06-22T14:22:10;1409.60;;;989.57;;
20458;SDS011;10388;52.314;7.938;2023-06-22T14:24:41;1621.73;;;999.90;;
20458;SDS011;10388;52.314;7.938;2023-06-22T14:27:11;1489.43;;;999.90;;
20458;SDS011;10388;52.314;7.938;2023-06-22T14:29:42;1674.23;;;999.90;;
20458;SDS011;10388;52.314;7.938;2023-06-22T14:32:13;1683.50;;;999.90;;
20458;SDS011;10388;52.314;7.938;2023-06-22T14:34:43;1639.87;;;999.90;;
20458;SDS011;10388;52.314;7.938;2023-06-22T14:37:14;1642.73;;;999.90;;
20458;SDS011;10388;52.314;7.938;2023-06-22T14:39:44;1673.67;;;999.90;;
20458;SDS011;10388;52.314;7.938;2023-06-22T14:42:15;1665.43;;;999.90;;
20458;SDS011;10388;52.314;7.938;2023-06-22T14:44:45;1669.80;;;999.90;;
20458;SDS011;10388;52.314;7.938;2023-06-22T14:47:16;1576.47;;;999.90;;
20458;SDS011;10388;52.314;7.938;2023-06-22T14:49:48;1727.90;;;999.90;;
20458;SDS011;10388;52.314;7.938;2023-06-22T14:52:19;1699.50;;;999.90;;
20458;SDS011;10388;52.314;7.938;2023-06-22T14:54:49;1646.33;;;999.90;;
20458;SDS011;10388;52.314;7.938;2023-06-22T14:57:22;1696.57;;;999.90;;
20458;SDS011;10388;52.314;7.938;2023-06-22T14:59:53;1684.17;;;999.90;;
20458;SDS011;10388;52.314;7.938;2023-06-22T15:02:23;1731.73;;;999.90;;
20458;SDS011;10388;52.314;7.938;2023-06-22T15:04:54;1723.37;;;999.90;;
20458;SDS011;10388;52.314;7.938;2023-06-22T15:07:24;1755.27;;;999.90;;
20458;SDS011;10388;52.314;7.938;2023-06-22T15:09:55;1703.37;;;999.90;;
20458;SDS011;10388;52.314;7.938;2023-06-22T15:12:25;1685.03;;;999.90;;
20458;SDS011;10388;52.314;7.938;2023-06-22T15:14:56;1686.73;;;999.90;;
20458;SDS011;10388;52.314;7.938;2023-06-22T15:17:26;1706.90;;;999.90;;
20458;SDS011;10388;52.314;7.938;2023-06-22T15:19:59;1721.20;;;999.90;;
20458;SDS011;10388;52.314;7.938;2023-06-22T15:22:30;1690.17;;;999.90;;
20458;SDS011;10388;52.314;7.938;2023-06-22T15:25:01;1765.20;;;999.90;;
20458;SDS011;10388;52.314;7.938;2023-06-22T15:27:33;1726.83;;;999.90;;
20458;SDS011;10388;52.314;7.938;2023-06-22T15:30:04;1709.73;;;999.90;;
20458;SDS011;10388;52.314;7.938;2023-06-22T15:32:35;1713.57;;;999.90;;
20458;SDS011;10388;52.314;7.938;2023-06-22T15:35:05;1730.17;;;999.90;;
20458;SDS011;10388;52.314;7.938;2023-06-22T15:37:36;1709.23;;;999.90;;
20458;SDS011;10388;52.314;7.938;2023-06-22T15:40:07;1730.37;;;999.90;;
20458;SDS011;10388;52.314;7.938;2023-06-22T15:42:38;1722.00;;;999.90;;
20458;SDS011;10388;52.314;7.938;2023-06-22T15:45:08;1643.47;;;999.90;;
20458;SDS011;10388;52.314;7.938;2023-06-22T15:47:39;1658.77;;;999.90;;
20458;SDS011;10388;52.314;7.938;2023-06-22T15:50:10;1766.53;;;999.90;;
20458;SDS011;10388;52.314;7.938;2023-06-22T15:52:40;1737.07;;;999.90;;
20458;SDS011;10388;52.314;7.938;2023-06-22T15:55:11;1612.43;;;999.90;;
20458;SDS011;10388;52.314;7.938;2023-06-22T15:57:42;1744.40;;;999.90;;
20458;SDS011;10388;52.314;7.938;2023-06-22T16:00:16;1752.13;;;999.90;;
20458;SDS011;10388;52.314;7.938;2023-06-22T16:02:47;1698.73;;;999.90;;
20458;SDS011;10388;52.314;7.938;2023-06-22T16:05:18;1516.10;;;999.90;;
20458;SDS011;10388;52.314;7.938;2023-06-22T16:07:49;1745.40;;;999.90;;
20458;SDS011;10388;52.314;7.938;2023-06-22T16:10:19;1552.90;;;999.90;;
20458;SDS011;10388;52.314;7.938;2023-06-22T16:12:50;1486.07;;;999.63;;
20458;SDS011;10388;52.314;7.938;2023-06-22T16:15:21;1698.17;;;999.90;;
20458;SDS011;10388;52.314;7.938;2023-06-22T16:17:51;1752.83;;;999.90;;
20458;SDS011;10388;52.314;7.938;2023-06-22T16:20:22;1821.03;;;999.90;;
20458;SDS011;10388;52.314;7.938;2023-06-22T16:22:52;1792.00;;;999.90;;
20458;SDS011;10388;52.314;7.938;2023-06-22T16:25:23;1819.13;;;999.90;;
20458;SDS011;10388;52.314;7.938;2023-06-22T16:27:53;1811.37;;;999.90;;
20458;SDS011;10388;52.314;7.938;2023-06-22T16:30:24;1846.07;;;999.90;;
20458;SDS011;10388;52.314;7.938;2023-06-22T16:32:55;1876.90;;;999.90;;
20458;SDS011;10388;52.314;7.938;2023-06-22T16:35:28;1817.40;;;999.90;;
20458;SDS011;10388;52.314;7.938;2023-06-22T16:37:59;1785.10;;;999.90;;
20458;SDS011;10388;52.314;7.938;2023-06-22T16:40:30;1750.10;;;999.90;;
20458;SDS011;10388;52.314;7.938;2023-06-22T16:43:00;1849.53;;;999.90;;
20458;SDS011;10388;52.314;7.938;2023-06-22T16:45:31;1873.67;;;999.90;;
20458;SDS011;10388;52.314;7.938;2023-06-22T16:48:04;1774.93;;;999.90;;
20458;SDS011;10388;52.314;7.938;2023-06-22T16:50:35;1664.93;;;999.90;;
20458;SDS011;10388;52.314;7.938;2023-06-22T16:53:05;1680.17;;;999.90;;
20458;SDS011;10388;52.314;7.938;2023-06-22T16:55:36;1865.20;;;999.90;;
20458;SDS011;10388;52.314;7.938;2023-06-22T16:58:07;1766.67;;;999.90;;
20458;SDS011;10388;52.314;7.938;2023-06-22T17:00:43;1891.70;;;999.90;;
20458;SDS011;10388;52.314;7.938;2023-06-22T17:03:15;1935.20;;;999.90;;
20458;SDS011;10388;52.314;7.938;2023-06-22T17:05:57;1808.40;;;999.90;;